sensor_id;sensor_type;location;lat;lon;timestamp;P1;durP1;ratioP1;P2;durP2;ratioP2
75386;SDS011;63966;47.914;22.266;2023-07-20T00:01:35;8.43;;;4.65;;
75386;SDS011;63966;47.914;22.266;2023-07-20T00:04:41;8.60;;;4.38;;
75386;SDS011;63966;47.914;22.266;2023-07-20T00:07:45;10.53;;;4.60;;
75386;SDS011;63966;47.914;22.266;2023-07-20T00:10:49;9.97;;;4.53;;
75386;SDS011;63966;47.914;22.266;2023-07-20T00:13:53;8.45;;;4.70;;
75386;SDS011;63966;47.914;22.266;2023-07-20T00:16:56;8.43;;;4.32;;
75386;SDS011;63966;47.914;22.266;2023-07-20T00:20:00;8.70;;;4.13;;
75386;SDS011;63966;47.914;22.266;2023-07-20T00:23:03;10.13;;;4.57;;
75386;SDS011;63966;47.914;22.266;2023-07-20T00:26:10;8.57;;;4.60;;
75386;SDS011;63966;47.914;22.266;2023-07-20T00:29:13;10.13;;;5.03;;
75386;SDS011;63966;47.914;22.266;2023-07-20T00:32:17;9.45;;;5.07;;
75386;SDS011;63966;47.914;22.266;2023-07-20T00:35:20;9.85;;;4.97;;
75386;SDS011;63966;47.914;22.266;2023-07-20T00:38:25;8.03;;;4.43;;
75386;SDS011;63966;47.914;22.266;2023-07-20T00:41:28;8.87;;;4.40;;
75386;SDS011;63966;47.914;22.266;2023-07-20T00:44:32;10.82;;;5.32;;
75386;SDS011;63966;47.914;22.266;2023-07-20T00:47:36;9.63;;;5.25;;
75386;SDS011;63966;47.914;22.266;2023-07-20T00:50:40;9.40;;;5.05;;
75386;SDS011;63966;47.914;22.266;2023-07-20T00:53:43;9.07;;;5.17;;
75386;SDS011;63966;47.914;22.266;2023-07-20T00:56:47;10.97;;;5.50;;
75386;SDS011;63966;47.914;22.266;2023-07-20T00:59:51;8.00;;;4.88;;
75386;SDS011;63966;47.914;22.266;2023-07-20T01:02:55;12.27;;;4.97;;
75386;SDS011;63966;47.914;22.266;2023-07-20T01:06:14;10.63;;;4.95;;
75386;SDS011;63966;47.914;22.266;2023-07-20T01:09:25;8.20;;;4.27;;
75386;SDS011;63966;47.914;22.266;2023-07-20T01:12:40;8.57;;;4.80;;
75386;SDS011;63966;47.914;22.266;2023-07-20T01:15:49;11.02;;;4.47;;
75386;SDS011;63966;47.914;22.266;2023-07-20T01:18:55;11.82;;;5.20;;
75386;SDS011;63966;47.914;22.266;2023-07-20T01:31:58;12.50;;;6.40;;
75386;SDS011;63966;47.914;22.266;2023-07-20T01:35:06;20.15;;;9.23;;
75386;SDS011;63966;47.914;22.266;2023-07-20T01:38:13;23.23;;;9.43;;
75386;SDS011;63966;47.914;22.266;2023-07-20T01:41:18;16.90;;;9.13;;
75386;SDS011;63966;47.914;22.266;2023-07-20T01:44:22;19.93;;;8.60;;
75386;SDS011;63966;47.914;22.266;2023-07-20T01:47:27;15.77;;;7.63;;
75386;SDS011;63966;47.914;22.266;2023-07-20T01:50:33;11.43;;;6.53;;
75386;SDS011;63966;47.914;22.266;2023-07-20T01:53:40;12.27;;;6.35;;
75386;SDS011;63966;47.914;22.266;2023-07-20T01:56:43;11.40;;;6.37;;
75386;SDS011;63966;47.914;22.266;2023-07-20T01:59:47;14.23;;;6.23;;
75386;SDS011;63966;47.914;22.266;2023-07-20T02:02:51;12.50;;;7.18;;
75386;SDS011;63966;47.914;22.266;2023-07-20T02:05:54;15.68;;;6.50;;
75386;SDS011;63966;47.914;22.266;2023-07-20T02:09:00;14.30;;;6.85;;
75386;SDS011;63966;47.914;22.266;2023-07-20T02:12:06;12.90;;;7.03;;
75386;SDS011;63966;47.914;22.266;2023-07-20T02:15:18;25.13;;;7.83;;
75386;SDS011;63966;47.914;22.266;2023-07-20T02:18:22;17.77;;;8.15;;
75386;SDS011;63966;47.914;22.266;2023-07-20T02:21:28;13.50;;;7.38;;
75386;SDS011;63966;47.914;22.266;2023-07-20T02:24:33;10.40;;;5.28;;
75386;SDS011;63966;47.914;22.266;2023-07-20T02:27:36;11.00;;;5.13;;
75386;SDS011;63966;47.914;22.266;2023-07-20T02:30:44;12.63;;;5.43;;
75386;SDS011;63966;47.914;22.266;2023-07-20T02:33:48;9.60;;;5.22;;
75386;SDS011;63966;47.914;22.266;2023-07-20T02:36:52;14.55;;;6.18;;
75386;SDS011;63966;47.914;22.266;2023-07-20T02:39:59;11.55;;;5.88;;
75386;SDS011;63966;47.914;22.266;2023-07-20T02:43:03;18.83;;;6.23;;
75386;SDS011;63966;47.914;22.266;2023-07-20T02:46:07;10.23;;;5.97;;
75386;SDS011;63966;47.914;22.266;2023-07-20T02:49:10;13.50;;;5.75;;
75386;SDS011;63966;47.914;22.266;2023-07-20T02:52:14;13.02;;;6.15;;
75386;SDS011;63966;47.914;22.266;2023-07-20T02:55:17;12.88;;;6.22;;
75386;SDS011;63966;47.914;22.266;2023-07-20T02:58:21;14.80;;;5.93;;
75386;SDS011;63966;47.914;22.266;2023-07-20T03:01:25;23.23;;;6.13;;
75386;SDS011;63966;47.914;22.266;2023-07-20T03:04:34;25.90;;;5.20;;
75386;SDS011;63966;47.914;22.266;2023-07-20T03:07:39;29.98;;;5.70;;
75386;SDS011;63966;47.914;22.266;2023-07-20T03:10:48;19.23;;;5.68;;
75386;SDS011;63966;47.914;22.266;2023-07-20T03:13:52;15.63;;;5.60;;
75386;SDS011;63966;47.914;22.266;2023-07-20T03:16:57;14.20;;;5.63;;
75386;SDS011;63966;47.914;22.266;2023-07-20T03:20:01;13.55;;;5.40;;
75386;SDS011;63966;47.914;22.266;2023-07-20T03:23:05;13.13;;;5.85;;
75386;SDS011;63966;47.914;22.266;2023-07-20T03:26:09;10.05;;;5.78;;
75386;SDS011;63966;47.914;22.266;2023-07-20T03:29:18;10.73;;;5.70;;
75386;SDS011;63966;47.914;22.266;2023-07-20T03:32:22;13.90;;;5.70;;
75386;SDS011;63966;47.914;22.266;2023-07-20T03:35:26;19.08;;;5.97;;
75386;SDS011;63966;47.914;22.266;2023-07-20T03:38:29;9.75;;;5.13;;
75386;SDS011;63966;47.914;22.266;2023-07-20T03:41:33;7.28;;;4.72;;
75386;SDS011;63966;47.914;22.266;2023-07-20T03:44:37;7.47;;;5.17;;
75386;SDS011;63966;47.914;22.266;2023-07-20T03:47:42;6.67;;;4.20;;
75386;SDS011;63966;47.914;22.266;2023-07-20T03:50:47;6.90;;;4.20;;
75386;SDS011;63966;47.914;22.266;2023-07-20T03:53:51;6.55;;;3.88;;
75386;SDS011;63966;47.914;22.266;2023-07-20T03:56:55;7.38;;;4.10;;
75386;SDS011;63966;47.914;22.266;2023-07-20T03:59:58;11.07;;;4.30;;
75386;SDS011;63966;47.914;22.266;2023-07-20T04:03:04;6.77;;;4.00;;
75386;SDS011;63966;47.914;22.266;2023-07-20T04:06:08;7.70;;;4.40;;
75386;SDS011;63966;47.914;22.266;2023-07-20T04:09:12;6.60;;;3.95;;
75386;SDS011;63966;47.914;22.266;2023-07-20T04:12:15;6.93;;;4.32;;
75386;SDS011;63966;47.914;22.266;2023-07-20T04:15:19;8.20;;;4.83;;
75386;SDS011;63966;47.914;22.266;2023-07-20T04:18:23;8.77;;;4.93;;
75386;SDS011;63966;47.914;22.266;2023-07-20T04:21:29;8.27;;;5.38;;
75386;SDS011;63966;47.914;22.266;2023-07-20T04:24:33;8.55;;;4.88;;
75386;SDS011;63966;47.914;22.266;2023-07-20T04:27:37;8.68;;;5.53;;
75386;SDS011;63966;47.914;22.266;2023-07-20T04:30:40;10.90;;;5.33;;
75386;SDS011;63966;47.914;22.266;2023-07-20T04:33:47;9.53;;;5.90;;
75386;SDS011;63966;47.914;22.266;2023-07-20T04:36:52;8.90;;;6.07;;
75386;SDS011;63966;47.914;22.266;2023-07-20T04:39:57;11.48;;;6.35;;
75386;SDS011;63966;47.914;22.266;2023-07-20T04:43:01;11.80;;;6.43;;
75386;SDS011;63966;47.914;22.266;2023-07-20T04:46:09;10.10;;;6.33;;
75386;SDS011;63966;47.914;22.266;2023-07-20T04:49:13;37.70;;;7.43;;
75386;SDS011;63966;47.914;22.266;2023-07-20T04:52:19;16.88;;;7.25;;
75386;SDS011;63966;47.914;22.266;2023-07-20T04:55:32;19.33;;;7.55;;
75386;SDS011;63966;47.914;22.266;2023-07-20T04:58:36;24.17;;;7.35;;
75386;SDS011;63966;47.914;22.266;2023-07-20T05:01:40;34.37;;;8.10;;
75386;SDS011;63966;47.914;22.266;2023-07-20T05:04:44;16.80;;;7.27;;
75386;SDS011;63966;47.914;22.266;2023-07-20T05:07:47;15.18;;;7.65;;
75386;SDS011;63966;47.914;22.266;2023-07-20T05:10:52;18.23;;;7.53;;
75386;SDS011;63966;47.914;22.266;2023-07-20T05:13:55;12.80;;;6.68;;
75386;SDS011;63966;47.914;22.266;2023-07-20T05:16:59;23.33;;;6.90;;
75386;SDS011;63966;47.914;22.266;2023-07-20T05:20:02;22.80;;;6.50;;
75386;SDS011;63966;47.914;22.266;2023-07-20T05:23:07;12.20;;;5.97;;
75386;SDS011;63966;47.914;22.266;2023-07-20T05:26:10;20.77;;;6.93;;
75386;SDS011;63966;47.914;22.266;2023-07-20T05:29:14;20.48;;;8.07;;
75386;SDS011;63966;47.914;22.266;2023-07-20T05:32:21;15.43;;;8.20;;
75386;SDS011;63966;47.914;22.266;2023-07-20T05:35:25;17.13;;;7.43;;
75386;SDS011;63966;47.914;22.266;2023-07-20T05:38:29;20.55;;;7.85;;
75386;SDS011;63966;47.914;22.266;2023-07-20T05:41:33;12.60;;;7.43;;
75386;SDS011;63966;47.914;22.266;2023-07-20T05:44:42;21.13;;;8.23;;
75386;SDS011;63966;47.914;22.266;2023-07-20T05:47:45;15.77;;;7.50;;
75386;SDS011;63966;47.914;22.266;2023-07-20T05:50:49;15.30;;;7.00;;
75386;SDS011;63966;47.914;22.266;2023-07-20T05:53:53;12.98;;;7.95;;
75386;SDS011;63966;47.914;22.266;2023-07-20T05:57:07;14.65;;;7.55;;
75386;SDS011;63966;47.914;22.266;2023-07-20T06:00:11;12.68;;;6.97;;
75386;SDS011;63966;47.914;22.266;2023-07-20T06:03:17;10.67;;;6.63;;
75386;SDS011;63966;47.914;22.266;2023-07-20T06:06:20;10.23;;;6.40;;
75386;SDS011;63966;47.914;22.266;2023-07-20T06:09:24;9.20;;;5.93;;
75386;SDS011;63966;47.914;22.266;2023-07-20T06:12:29;10.10;;;6.35;;
75386;SDS011;63966;47.914;22.266;2023-07-20T06:15:33;9.80;;;5.53;;
75386;SDS011;63966;47.914;22.266;2023-07-20T06:18:44;9.93;;;5.60;;
75386;SDS011;63966;47.914;22.266;2023-07-20T06:21:48;9.90;;;5.77;;
75386;SDS011;63966;47.914;22.266;2023-07-20T06:24:54;12.10;;;6.50;;
75386;SDS011;63966;47.914;22.266;2023-07-20T06:27:58;9.90;;;6.70;;
75386;SDS011;63966;47.914;22.266;2023-07-20T06:31:01;9.02;;;5.72;;
75386;SDS011;63966;47.914;22.266;2023-07-20T06:34:48;9.23;;;6.20;;
75386;SDS011;63966;47.914;22.266;2023-07-20T06:37:55;11.50;;;6.13;;
75386;SDS011;63966;47.914;22.266;2023-07-20T06:41:21;9.32;;;5.50;;
75386;SDS011;63966;47.914;22.266;2023-07-20T06:44:27;8.68;;;5.40;;
75386;SDS011;63966;47.914;22.266;2023-07-20T06:47:31;11.30;;;5.88;;
75386;SDS011;63966;47.914;22.266;2023-07-20T06:50:35;9.67;;;6.23;;
75386;SDS011;63966;47.914;22.266;2023-07-20T06:53:39;10.63;;;6.00;;
75386;SDS011;63966;47.914;22.266;2023-07-20T06:56:43;8.95;;;5.80;;
75386;SDS011;63966;47.914;22.266;2023-07-20T06:59:48;10.45;;;7.07;;
75386;SDS011;63966;47.914;22.266;2023-07-20T07:02:52;9.57;;;6.63;;
75386;SDS011;63966;47.914;22.266;2023-07-20T07:05:55;15.70;;;5.60;;
75386;SDS011;63966;47.914;22.266;2023-07-20T07:08:59;11.13;;;6.70;;
75386;SDS011;63966;47.914;22.266;2023-07-20T07:12:03;8.80;;;6.60;;
75386;SDS011;63966;47.914;22.266;2023-07-20T07:15:07;11.30;;;8.10;;
75386;SDS011;63966;47.914;22.266;2023-07-20T07:18:20;11.05;;;7.10;;
75386;SDS011;63966;47.914;22.266;2023-07-20T07:21:28;10.35;;;6.63;;
75386;SDS011;63966;47.914;22.266;2023-07-20T07:24:33;10.97;;;7.50;;
75386;SDS011;63966;47.914;22.266;2023-07-20T07:27:37;13.55;;;6.90;;
75386;SDS011;63966;47.914;22.266;2023-07-20T07:30:40;11.27;;;6.97;;
75386;SDS011;63966;47.914;22.266;2023-07-20T07:33:44;11.15;;;7.32;;
75386;SDS011;63966;47.914;22.266;2023-07-20T07:36:47;14.88;;;8.13;;
75386;SDS011;63966;47.914;22.266;2023-07-20T07:39:51;9.63;;;7.67;;
75386;SDS011;63966;47.914;22.266;2023-07-20T07:42:55;11.32;;;8.00;;
75386;SDS011;63966;47.914;22.266;2023-07-20T07:45:58;10.27;;;7.60;;
75386;SDS011;63966;47.914;22.266;2023-07-20T07:49:02;10.20;;;7.32;;
75386;SDS011;63966;47.914;22.266;2023-07-20T07:52:06;10.15;;;6.60;;
75386;SDS011;63966;47.914;22.266;2023-07-20T07:55:10;9.90;;;6.77;;
75386;SDS011;63966;47.914;22.266;2023-07-20T07:58:14;9.77;;;6.57;;
75386;SDS011;63966;47.914;22.266;2023-07-20T08:01:20;9.55;;;6.70;;
75386;SDS011;63966;47.914;22.266;2023-07-20T08:04:24;9.45;;;6.70;;
75386;SDS011;63966;47.914;22.266;2023-07-20T08:07:28;8.95;;;6.45;;
75386;SDS011;63966;47.914;22.266;2023-07-20T08:10:32;9.03;;;6.33;;
75386;SDS011;63966;47.914;22.266;2023-07-20T08:13:36;10.75;;;6.55;;
75386;SDS011;63966;47.914;22.266;2023-07-20T08:16:43;10.52;;;6.78;;
75386;SDS011;63966;47.914;22.266;2023-07-20T08:19:51;10.88;;;7.68;;
75386;SDS011;63966;47.914;22.266;2023-07-20T08:22:55;12.73;;;7.97;;
75386;SDS011;63966;47.914;22.266;2023-07-20T08:26:01;10.63;;;7.43;;
75386;SDS011;63966;47.914;22.266;2023-07-20T08:29:04;10.05;;;7.43;;
75386;SDS011;63966;47.914;22.266;2023-07-20T08:32:08;10.32;;;7.93;;
75386;SDS011;63966;47.914;22.266;2023-07-20T08:35:11;10.52;;;7.50;;
75386;SDS011;63966;47.914;22.266;2023-07-20T08:38:17;9.25;;;7.30;;
75386;SDS011;63966;47.914;22.266;2023-07-20T08:41:20;12.63;;;7.30;;
75386;SDS011;63966;47.914;22.266;2023-07-20T08:44:24;10.68;;;6.80;;
75386;SDS011;63966;47.914;22.266;2023-07-20T08:47:29;8.60;;;6.38;;
75386;SDS011;63966;47.914;22.266;2023-07-20T08:50:33;8.48;;;6.55;;
75386;SDS011;63966;47.914;22.266;2023-07-20T08:53:38;10.27;;;6.65;;
75386;SDS011;63966;47.914;22.266;2023-07-20T08:56:42;7.80;;;6.23;;
75386;SDS011;63966;47.914;22.266;2023-07-20T08:59:47;9.00;;;6.40;;
75386;SDS011;63966;47.914;22.266;2023-07-20T09:02:55;10.63;;;6.72;;
75386;SDS011;63966;47.914;22.266;2023-07-20T09:06:00;9.75;;;6.95;;
75386;SDS011;63966;47.914;22.266;2023-07-20T09:09:04;13.00;;;7.80;;
75386;SDS011;63966;47.914;22.266;2023-07-20T09:12:17;11.50;;;6.63;;
75386;SDS011;63966;47.914;22.266;2023-07-20T09:15:21;9.75;;;6.95;;
75386;SDS011;63966;47.914;22.266;2023-07-20T09:18:26;10.82;;;6.65;;
75386;SDS011;63966;47.914;22.266;2023-07-20T09:21:31;10.32;;;7.05;;
75386;SDS011;63966;47.914;22.266;2023-07-20T09:24:35;11.88;;;7.25;;
75386;SDS011;63966;47.914;22.266;2023-07-20T09:27:39;9.57;;;6.90;;
75386;SDS011;63966;47.914;22.266;2023-07-20T09:30:47;10.13;;;6.95;;
75386;SDS011;63966;47.914;22.266;2023-07-20T09:33:55;12.05;;;6.40;;
75386;SDS011;63966;47.914;22.266;2023-07-20T09:37:01;11.82;;;7.10;;
75386;SDS011;63966;47.914;22.266;2023-07-20T09:40:06;10.10;;;6.70;;
75386;SDS011;63966;47.914;22.266;2023-07-20T09:43:15;10.10;;;6.67;;
75386;SDS011;63966;47.914;22.266;2023-07-20T09:46:22;11.50;;;6.28;;
75386;SDS011;63966;47.914;22.266;2023-07-20T09:49:28;11.50;;;7.45;;
75386;SDS011;63966;47.914;22.266;2023-07-20T09:52:54;9.63;;;6.20;;
75386;SDS011;63966;47.914;22.266;2023-07-20T09:56:01;10.88;;;6.65;;
75386;SDS011;63966;47.914;22.266;2023-07-20T09:59:05;8.70;;;6.07;;
75386;SDS011;63966;47.914;22.266;2023-07-20T10:02:32;10.65;;;6.60;;
75386;SDS011;63966;47.914;22.266;2023-07-20T10:05:40;10.82;;;6.75;;
75386;SDS011;63966;47.914;22.266;2023-07-20T10:08:52;11.55;;;6.50;;
75386;SDS011;63966;47.914;22.266;2023-07-20T10:11:58;8.90;;;6.28;;
75386;SDS011;63966;47.914;22.266;2023-07-20T10:15:24;10.80;;;6.17;;
75386;SDS011;63966;47.914;22.266;2023-07-20T10:22:34;9.95;;;6.25;;
75386;SDS011;63966;47.914;22.266;2023-07-20T10:25:43;10.20;;;6.63;;
75386;SDS011;63966;47.914;22.266;2023-07-20T10:28:50;9.75;;;6.43;;
75386;SDS011;63966;47.914;22.266;2023-07-20T10:31:55;8.10;;;5.87;;
75386;SDS011;63966;47.914;22.266;2023-07-20T10:34:59;10.20;;;6.20;;
75386;SDS011;63966;47.914;22.266;2023-07-20T10:38:03;10.20;;;6.30;;
75386;SDS011;63966;47.914;22.266;2023-07-20T10:41:20;10.23;;;6.38;;
75386;SDS011;63966;47.914;22.266;2023-07-20T10:44:28;9.75;;;6.40;;
75386;SDS011;63966;47.914;22.266;2023-07-20T10:47:32;11.43;;;6.13;;
75386;SDS011;63966;47.914;22.266;2023-07-20T10:57:24;9.75;;;5.20;;
75386;SDS011;63966;47.914;22.266;2023-07-20T11:00:35;10.75;;;5.32;;
75386;SDS011;63966;47.914;22.266;2023-07-20T11:03:38;9.63;;;5.70;;
75386;SDS011;63966;47.914;22.266;2023-07-20T11:06:43;9.23;;;5.53;;
75386;SDS011;63966;47.914;22.266;2023-07-20T11:09:47;8.00;;;5.18;;
75386;SDS011;63966;47.914;22.266;2023-07-20T11:13:16;9.20;;;5.85;;
75386;SDS011;63966;47.914;22.266;2023-07-20T11:16:34;8.90;;;5.47;;
75386;SDS011;63966;47.914;22.266;2023-07-20T11:19:42;8.37;;;5.00;;
75386;SDS011;63966;47.914;22.266;2023-07-20T11:22:49;8.43;;;4.72;;
75386;SDS011;63966;47.914;22.266;2023-07-20T11:25:56;8.32;;;4.78;;
75386;SDS011;63966;47.914;22.266;2023-07-20T11:29:01;8.82;;;4.95;;
75386;SDS011;63966;47.914;22.266;2023-07-20T11:32:10;8.57;;;5.30;;
75386;SDS011;63966;47.914;22.266;2023-07-20T11:35:14;7.93;;;4.90;;
75386;SDS011;63966;47.914;22.266;2023-07-20T11:38:18;9.10;;;4.75;;
75386;SDS011;63966;47.914;22.266;2023-07-20T11:41:21;9.45;;;5.40;;
75386;SDS011;63966;47.914;22.266;2023-07-20T11:44:27;8.55;;;5.10;;
75386;SDS011;63966;47.914;22.266;2023-07-20T11:47:32;8.60;;;4.75;;
75386;SDS011;63966;47.914;22.266;2023-07-20T11:50:38;8.83;;;4.80;;
75386;SDS011;63966;47.914;22.266;2023-07-20T11:53:43;8.55;;;5.00;;
75386;SDS011;63966;47.914;22.266;2023-07-20T11:56:48;10.40;;;5.18;;
75386;SDS011;63966;47.914;22.266;2023-07-20T11:59:56;8.23;;;4.75;;
75386;SDS011;63966;47.914;22.266;2023-07-20T12:03:07;8.23;;;4.82;;
75386;SDS011;63966;47.914;22.266;2023-07-20T12:06:12;8.90;;;5.47;;
75386;SDS011;63966;47.914;22.266;2023-07-20T12:09:16;10.50;;;5.30;;
75386;SDS011;63966;47.914;22.266;2023-07-20T12:12:20;8.02;;;5.10;;
75386;SDS011;63966;47.914;22.266;2023-07-20T12:15:27;8.25;;;5.00;;
75386;SDS011;63966;47.914;22.266;2023-07-20T12:18:35;7.30;;;5.13;;
75386;SDS011;63966;47.914;22.266;2023-07-20T12:21:40;8.57;;;4.90;;
75386;SDS011;63966;47.914;22.266;2023-07-20T12:24:51;9.13;;;4.80;;
75386;SDS011;63966;47.914;22.266;2023-07-20T12:27:56;7.38;;;4.38;;
75386;SDS011;63966;47.914;22.266;2023-07-20T12:31:05;8.40;;;4.82;;
75386;SDS011;63966;47.914;22.266;2023-07-20T12:34:09;7.13;;;4.72;;
75386;SDS011;63966;47.914;22.266;2023-07-20T12:37:13;11.13;;;5.13;;
75386;SDS011;63966;47.914;22.266;2023-07-20T12:40:20;8.35;;;4.18;;
75386;SDS011;63966;47.914;22.266;2023-07-20T12:43:24;8.23;;;4.47;;
75386;SDS011;63966;47.914;22.266;2023-07-20T12:46:28;9.35;;;5.07;;
75386;SDS011;63966;47.914;22.266;2023-07-20T12:49:33;8.43;;;4.28;;
75386;SDS011;63966;47.914;22.266;2023-07-20T12:52:37;8.33;;;4.50;;
75386;SDS011;63966;47.914;22.266;2023-07-20T12:55:41;9.90;;;5.05;;
75386;SDS011;63966;47.914;22.266;2023-07-20T12:58:45;10.52;;;5.15;;
75386;SDS011;63966;47.914;22.266;2023-07-20T13:01:52;8.65;;;4.53;;
75386;SDS011;63966;47.914;22.266;2023-07-20T13:04:55;8.90;;;3.50;;
75386;SDS011;63966;47.914;22.266;2023-07-20T13:07:59;15.83;;;3.20;;
75386;SDS011;63966;47.914;22.266;2023-07-20T13:11:05;8.38;;;4.53;;
75386;SDS011;63966;47.914;22.266;2023-07-20T13:14:08;8.68;;;5.20;;
75386;SDS011;63966;47.914;22.266;2023-07-20T13:17:14;7.57;;;4.25;;
75386;SDS011;63966;47.914;22.266;2023-07-20T13:20:18;8.93;;;4.10;;
75386;SDS011;63966;47.914;22.266;2023-07-20T13:23:22;11.20;;;4.43;;
75386;SDS011;63966;47.914;22.266;2023-07-20T13:26:26;20.48;;;8.55;;
75386;SDS011;63966;47.914;22.266;2023-07-20T13:29:29;21.17;;;10.75;;
75386;SDS011;63966;47.914;22.266;2023-07-20T13:32:32;16.73;;;9.82;;
75386;SDS011;63966;47.914;22.266;2023-07-20T13:35:36;21.40;;;11.57;;
75386;SDS011;63966;47.914;22.266;2023-07-20T13:38:42;17.77;;;10.93;;
75386;SDS011;63966;47.914;22.266;2023-07-20T13:41:46;16.17;;;11.23;;
75386;SDS011;63966;47.914;22.266;2023-07-20T13:44:50;18.15;;;9.85;;
75386;SDS011;63966;47.914;22.266;2023-07-20T13:47:54;11.90;;;7.47;;
75386;SDS011;63966;47.914;22.266;2023-07-20T13:50:57;14.50;;;9.70;;
75386;SDS011;63966;47.914;22.266;2023-07-20T13:54:02;13.83;;;8.53;;
75386;SDS011;63966;47.914;22.266;2023-07-20T13:57:09;15.30;;;9.45;;
75386;SDS011;63966;47.914;22.266;2023-07-20T14:00:12;12.57;;;8.65;;
75386;SDS011;63966;47.914;22.266;2023-07-20T14:03:19;12.75;;;8.18;;
75386;SDS011;63966;47.914;22.266;2023-07-20T14:06:23;10.57;;;7.13;;
75386;SDS011;63966;47.914;22.266;2023-07-20T14:09:31;10.77;;;7.13;;
75386;SDS011;63966;47.914;22.266;2023-07-20T14:12:34;10.40;;;6.90;;
75386;SDS011;63966;47.914;22.266;2023-07-20T14:15:39;11.77;;;7.25;;
75386;SDS011;63966;47.914;22.266;2023-07-20T14:18:43;11.40;;;7.55;;
75386;SDS011;63966;47.914;22.266;2023-07-20T14:21:50;11.77;;;7.27;;
75386;SDS011;63966;47.914;22.266;2023-07-20T14:24:54;10.87;;;6.70;;
75386;SDS011;63966;47.914;22.266;2023-07-20T14:28:00;11.88;;;7.07;;
75386;SDS011;63966;47.914;22.266;2023-07-20T14:31:04;10.63;;;6.60;;
75386;SDS011;63966;47.914;22.266;2023-07-20T14:34:08;10.70;;;6.80;;
75386;SDS011;63966;47.914;22.266;2023-07-20T14:37:12;11.73;;;6.67;;
75386;SDS011;63966;47.914;22.266;2023-07-20T14:40:16;9.77;;;6.47;;
75386;SDS011;63966;47.914;22.266;2023-07-20T14:43:21;10.90;;;6.93;;
75386;SDS011;63966;47.914;22.266;2023-07-20T14:46:25;9.60;;;6.55;;
75386;SDS011;63966;47.914;22.266;2023-07-20T14:49:28;10.10;;;5.82;;
75386;SDS011;63966;47.914;22.266;2023-07-20T14:52:32;11.93;;;6.03;;
75386;SDS011;63966;47.914;22.266;2023-07-20T14:55:35;10.63;;;5.93;;
75386;SDS011;63966;47.914;22.266;2023-07-20T14:58:39;10.95;;;5.95;;
75386;SDS011;63966;47.914;22.266;2023-07-20T15:01:43;9.70;;;6.28;;
75386;SDS011;63966;47.914;22.266;2023-07-20T15:04:50;11.70;;;5.65;;
75386;SDS011;63966;47.914;22.266;2023-07-20T15:07:54;9.70;;;6.03;;
75386;SDS011;63966;47.914;22.266;2023-07-20T15:10:59;9.97;;;4.97;;
75386;SDS011;63966;47.914;22.266;2023-07-20T15:14:02;8.80;;;4.90;;
75386;SDS011;63966;47.914;22.266;2023-07-20T15:17:05;9.68;;;4.82;;
75386;SDS011;63966;47.914;22.266;2023-07-20T15:20:10;8.30;;;5.00;;
75386;SDS011;63966;47.914;22.266;2023-07-20T15:23:15;7.97;;;5.13;;
75386;SDS011;63966;47.914;22.266;2023-07-20T15:26:19;9.73;;;5.20;;
75386;SDS011;63966;47.914;22.266;2023-07-20T15:29:24;8.88;;;4.65;;
75386;SDS011;63966;47.914;22.266;2023-07-20T15:32:30;8.15;;;4.55;;
75386;SDS011;63966;47.914;22.266;2023-07-20T15:35:53;7.55;;;4.45;;
75386;SDS011;63966;47.914;22.266;2023-07-20T15:38:57;9.67;;;5.23;;
75386;SDS011;63966;47.914;22.266;2023-07-20T15:42:00;8.13;;;4.27;;
75386;SDS011;63966;47.914;22.266;2023-07-20T15:45:04;7.88;;;4.78;;
75386;SDS011;63966;47.914;22.266;2023-07-20T15:48:08;9.25;;;4.78;;
75386;SDS011;63966;47.914;22.266;2023-07-20T15:51:12;9.25;;;4.70;;
75386;SDS011;63966;47.914;22.266;2023-07-20T15:54:16;9.20;;;4.70;;
75386;SDS011;63966;47.914;22.266;2023-07-20T15:57:19;8.13;;;4.80;;
75386;SDS011;63966;47.914;22.266;2023-07-20T16:00:23;8.52;;;4.40;;
75386;SDS011;63966;47.914;22.266;2023-07-20T16:03:27;8.65;;;4.95;;
75386;SDS011;63966;47.914;22.266;2023-07-20T16:06:39;8.80;;;4.30;;
75386;SDS011;63966;47.914;22.266;2023-07-20T16:09:42;7.70;;;4.47;;
75386;SDS011;63966;47.914;22.266;2023-07-20T16:12:48;7.97;;;4.33;;
75386;SDS011;63966;47.914;22.266;2023-07-20T16:15:51;9.13;;;4.32;;
75386;SDS011;63966;47.914;22.266;2023-07-20T16:18:55;7.38;;;4.15;;
75386;SDS011;63966;47.914;22.266;2023-07-20T16:22:01;7.47;;;4.05;;
75386;SDS011;63966;47.914;22.266;2023-07-20T16:25:08;7.70;;;3.90;;
75386;SDS011;63966;47.914;22.266;2023-07-20T16:28:14;7.53;;;4.10;;
75386;SDS011;63966;47.914;22.266;2023-07-20T16:31:17;7.93;;;4.43;;
75386;SDS011;63966;47.914;22.266;2023-07-20T16:34:22;8.55;;;4.07;;
75386;SDS011;63966;47.914;22.266;2023-07-20T16:37:26;7.88;;;4.03;;
75386;SDS011;63966;47.914;22.266;2023-07-20T16:40:32;10.93;;;4.07;;
75386;SDS011;63966;47.914;22.266;2023-07-20T16:43:57;8.23;;;4.30;;
75386;SDS011;63966;47.914;22.266;2023-07-20T16:47:04;9.00;;;4.50;;
75386;SDS011;63966;47.914;22.266;2023-07-20T16:50:07;7.43;;;4.28;;
75386;SDS011;63966;47.914;22.266;2023-07-20T16:53:12;6.85;;;4.03;;
75386;SDS011;63966;47.914;22.266;2023-07-20T16:56:16;6.90;;;4.10;;
75386;SDS011;63966;47.914;22.266;2023-07-20T16:59:20;8.07;;;4.33;;
75386;SDS011;63966;47.914;22.266;2023-07-20T17:02:23;9.95;;;4.65;;
75386;SDS011;63966;47.914;22.266;2023-07-20T17:05:27;9.55;;;4.60;;
75386;SDS011;63966;47.914;22.266;2023-07-20T17:08:33;8.57;;;4.80;;
75386;SDS011;63966;47.914;22.266;2023-07-20T17:11:36;7.47;;;4.80;;
75386;SDS011;63966;47.914;22.266;2023-07-20T17:14:40;9.67;;;4.60;;
75386;SDS011;63966;47.914;22.266;2023-07-20T17:17:43;7.28;;;4.35;;
75386;SDS011;63966;47.914;22.266;2023-07-20T17:20:47;8.45;;;4.85;;
75386;SDS011;63966;47.914;22.266;2023-07-20T17:23:54;11.60;;;4.72;;
75386;SDS011;63966;47.914;22.266;2023-07-20T17:27:02;10.87;;;5.00;;
75386;SDS011;63966;47.914;22.266;2023-07-20T17:30:09;8.87;;;4.83;;
75386;SDS011;63966;47.914;22.266;2023-07-20T17:33:13;8.68;;;4.95;;
75386;SDS011;63966;47.914;22.266;2023-07-20T17:36:22;7.90;;;4.60;;
75386;SDS011;63966;47.914;22.266;2023-07-20T17:39:29;10.48;;;4.72;;
75386;SDS011;63966;47.914;22.266;2023-07-20T17:42:38;10.63;;;4.83;;
75386;SDS011;63966;47.914;22.266;2023-07-20T17:45:51;9.60;;;5.30;;
75386;SDS011;63966;47.914;22.266;2023-07-20T17:48:56;12.07;;;5.28;;
75386;SDS011;63966;47.914;22.266;2023-07-20T17:51:59;10.07;;;5.30;;
75386;SDS011;63966;47.914;22.266;2023-07-20T17:55:05;9.48;;;5.60;;
75386;SDS011;63966;47.914;22.266;2023-07-20T17:58:11;10.20;;;5.73;;
75386;SDS011;63966;47.914;22.266;2023-07-20T18:01:15;10.53;;;5.93;;
75386;SDS011;63966;47.914;22.266;2023-07-20T18:04:19;10.23;;;5.65;;
75386;SDS011;63966;47.914;22.266;2023-07-20T18:07:22;11.10;;;5.80;;
75386;SDS011;63966;47.914;22.266;2023-07-20T18:10:26;9.75;;;5.10;;
75386;SDS011;63966;47.914;22.266;2023-07-20T18:13:30;9.77;;;5.90;;
75386;SDS011;63966;47.914;22.266;2023-07-20T18:16:33;8.47;;;5.13;;
75386;SDS011;63966;47.914;22.266;2023-07-20T18:19:37;8.95;;;5.70;;
75386;SDS011;63966;47.914;22.266;2023-07-20T18:22:40;11.75;;;6.53;;
75386;SDS011;63966;47.914;22.266;2023-07-20T18:25:44;10.63;;;6.35;;
75386;SDS011;63966;47.914;22.266;2023-07-20T18:28:48;9.63;;;6.23;;
75386;SDS011;63966;47.914;22.266;2023-07-20T18:31:52;9.13;;;6.07;;
75386;SDS011;63966;47.914;22.266;2023-07-20T18:34:55;9.63;;;6.03;;